Time;durP1;ratioP1;P1;durP2;ratioP2;P2;SDS_P1;SDS_P2;PMS_P1;PMS_P2;Temp;Humidity;BMP_temperature;BMP_pressure;BME280_temperature;BME280_humidity;BME280_pressure;Samples;Min_cycle;Max_cycle;Signal;HPM_P1;HPM_P2
2021/01/11 00:01:11;;;;;;;90.20;25.30;;;-6.60;99.90;;;;;;4396419;28;661247;-67
2021/01/11 00:03:59;;;;;;;64.43;20.83;;;-6.60;99.90;;;;;;4404461;28;659314;-64
2021/01/11 00:06:45;;;;;;;69.53;22.97;;;-6.60;99.90;;;;;;4415902;28;659952;-68
2021/01/11 00:09:32;;;;;;;72.30;22.73;;;-6.60;99.90;;;;;;4415706;28;658176;-68
2021/01/11 00:12:20;;;;;;;68.20;22.47;;;-6.60;99.90;;;;;;4396643;28;658635;-67
2021/01/11 00:15:08;;;;;;;69.70;22.80;;;-6.70;99.90;;;;;;4414469;28;660801;-68
2021/01/11 00:17:56;;;;;;;63.90;21.23;;;-6.70;99.90;;;;;;4379337;28;658464;-67
2021/01/11 00:20:43;;;;;;;49.50;18.43;;;-6.70;99.90;;;;;;4407679;28;659214;-67
2021/01/11 00:23:30;;;;;;;55.75;18.58;;;-6.70;99.90;;;;;;4389293;28;659030;-68
2021/01/11 00:26:17;;;;;;;53.88;18.10;;;-6.70;99.90;;;;;;4409308;28;660709;-67
2021/01/11 00:29:04;;;;;;;57.03;18.67;;;-6.70;99.90;;;;;;4397054;28;658707;-63
2021/01/11 00:31:51;;;;;;;68.87;22.10;;;-6.70;99.90;;;;;;4410955;28;658730;-67
2021/01/11 00:34:39;;;;;;;63.53;20.37;;;-6.70;99.90;;;;;;4412916;28;659900;-68
2021/01/11 00:37:26;;;;;;;65.27;21.10;;;-6.60;99.90;;;;;;4392591;28;659975;-67
2021/01/11 00:40:13;;;;;;;59.50;18.80;;;-6.60;99.90;;;;;;4415503;28;658385;-66
2021/01/11 00:43:00;;;;;;;52.73;17.93;;;-6.70;99.90;;;;;;4396556;28;659679;-67
2021/01/11 00:45:47;;;;;;;46.97;17.20;;;-6.70;99.90;;;;;;4409914;28;659309;-68
2021/01/11 00:48:34;;;;;;;48.30;16.40;;;-6.70;99.90;;;;;;4396360;28;658542;-67
2021/01/11 00:51:22;;;;;;;53.83;17.93;;;-6.70;99.90;;;;;;4415174;28;660058;-67
2021/01/11 00:54:09;;;;;;;45.20;15.83;;;-6.70;99.90;;;;;;4396962;28;658534;-66
2021/01/11 00:56:56;;;;;;;59.70;18.87;;;-6.80;99.90;;;;;;4416764;28;659717;-67
2021/01/11 00:59:44;;;;;;;58.10;19.03;;;-6.80;99.90;;;;;;4403059;28;658834;-64
2021/01/11 01:02:31;;;;;;;49.92;17.13;;;-6.80;99.90;;;;;;4418904;28;658539;-67
2021/01/11 01:05:18;;;;;;;48.78;16.73;;;-6.80;99.90;;;;;;4415013;28;660043;-67
2021/01/11 01:08:06;;;;;;;55.23;19.80;;;-6.80;99.90;;;;;;4391918;28;658506;-67
2021/01/11 01:10:54;;;;;;;47.97;15.60;;;-6.80;99.90;;;;;;4400708;28;659488;-62
2021/01/11 01:13:41;;;;;;;61.03;18.75;;;-6.70;99.90;;;;;;4410869;28;659604;-68
2021/01/11 01:16:28;;;;;;;49.08;17.40;;;-6.80;99.90;;;;;;4406614;28;659258;-68
2021/01/11 01:19:15;;;;;;;57.63;17.53;;;-6.80;99.90;;;;;;4394406;28;658690;-67
2021/01/11 01:22:02;;;;;;;51.40;17.73;;;-6.90;99.90;;;;;;4401661;28;658532;-68
2021/01/11 01:24:50;;;;;;;61.43;21.27;;;-6.90;99.90;;;;;;4395940;28;658567;-65
2021/01/11 01:27:37;;;;;;;59.23;21.07;;;-7.00;99.90;;;;;;4409889;28;660175;-67
2021/01/11 01:30:24;;;;;;;58.03;20.37;;;-7.00;99.90;;;;;;4395543;28;658797;-63
2021/01/11 01:33:11;;;;;;;64.68;17.88;;;-6.90;99.90;;;;;;4418138;28;659961;-67
2021/01/11 01:35:58;;;;;;;50.28;18.13;;;-7.00;99.90;;;;;;4414371;28;659742;-67
2021/01/11 01:38:45;;;;;;;41.50;15.67;;;-7.00;99.90;;;;;;4386855;28;660374;-67
2021/01/11 01:41:33;;;;;;;45.30;14.43;;;-7.10;99.90;;;;;;4410857;28;659535;-67
2021/01/11 01:44:20;;;;;;;41.00;14.30;;;-7.10;99.90;;;;;;4388588;28;659311;-66
2021/01/11 01:47:07;;;;;;;40.93;14.13;;;-7.10;99.90;;;;;;4414470;28;659138;-67
2021/01/11 01:49:54;;;;;;;40.83;15.07;;;-7.00;99.90;;;;;;4388531;28;658674;-66
2021/01/11 01:52:42;;;;;;;38.27;15.03;;;-7.10;99.90;;;;;;4414787;28;659442;-68
2021/01/11 01:55:29;;;;;;;43.47;14.90;;;-7.10;99.90;;;;;;4388404;28;658823;-67
2021/01/11 01:58:17;;;;;;;40.03;14.20;;;-7.00;99.90;;;;;;4409046;28;659898;-68
2021/01/11 02:01:04;;;;;;;54.67;18.93;;;-7.10;99.90;;;;;;4388144;28;658644;-67
2021/01/11 02:03:51;;;;;;;156.60;34.07;;;-7.20;99.90;;;;;;4414361;28;659897;-68
2021/01/11 02:06:39;;;;;;;210.27;43.50;;;-7.20;99.90;;;;;;4405569;28;659453;-62
2021/01/11 02:09:33;;;;;;;217.10;46.43;;;-7.20;99.90;;;;;;4412518;28;659755;-67
2021/01/11 02:12:21;;;;;;;198.67;41.23;;;-7.30;99.90;;;;;;4371660;28;659837;-67
2021/01/11 02:15:12;;;;;;;212.13;42.88;;;-7.30;99.90;;;;;;4398514;28;659668;-64
2021/01/11 02:18:01;;;;;;;191.87;38.77;;;-7.30;99.90;;;;;;4388415;28;659908;-66
2021/01/11 02:21:14;;;;;;;155.48;33.80;;;-7.40;99.90;;;;;;4405595;28;660851;-67
2021/01/11 02:24:30;;;;;;;134.87;31.70;;;-7.30;99.90;;;;;;4384012;28;661123;-67
2021/01/11 02:27:42;;;;;;;119.97;27.10;;;-7.40;99.90;;;;;;4388370;28;660299;-67
2021/01/11 02:30:30;;;;;;;89.38;21.77;;;-7.40;99.90;;;;;;4368453;28;661235;-64
2021/01/11 02:33:17;;;;;;;64.60;20.80;;;-7.40;99.90;;;;;;4405540;28;659172;-68
2021/01/11 02:36:05;;;;;;;56.40;16.17;;;-7.50;99.90;;;;;;4394824;28;659229;-67
2021/01/11 02:38:52;;;;;;;59.77;18.03;;;-7.50;99.90;;;;;;4408977;28;659756;-67
2021/01/11 02:41:39;;;;;;;47.83;16.23;;;-7.50;99.90;;;;;;4395181;28;659665;-66
2021/01/11 02:44:26;;;;;;;50.07;14.20;;;-7.50;99.90;;;;;;4408449;28;660733;-67
2021/01/11 02:47:14;;;;;;;32.53;12.13;;;-7.50;99.90;;;;;;4414145;28;658506;-67
2021/01/11 02:50:01;;;;;;;34.67;12.70;;;-7.60;99.90;;;;;;4386544;28;660411;-67
2021/01/11 02:52:59;;;;;;;36.17;12.00;;;-7.50;99.90;;;;;;4414039;28;658659;-66
2021/01/11 02:55:49;;;;;;;47.90;14.07;;;-7.50;99.90;;;;;;4363418;28;660437;-67
2021/01/11 02:58:47;;;;;;;37.17;12.68;;;-7.60;99.90;;;;;;4387366;28;660365;-67
2021/01/11 03:01:37;;;;;;;34.03;12.47;;;-7.60;99.90;;;;;;4361926;28;659219;-65
2021/01/11 03:04:26;;;;;;;40.30;12.57;;;-7.70;99.90;;;;;;4392129;28;658938;-66
2021/01/11 03:07:14;;;;;;;33.90;11.85;;;-7.70;99.90;;;;;;4385546;28;658607;-65
2021/01/11 03:10:01;;;;;;;38.90;13.90;;;-7.70;99.90;;;;;;4414033;28;660738;-67
2021/01/11 03:12:48;;;;;;;39.00;12.93;;;-7.70;99.90;;;;;;4407129;28;658570;-67
2021/01/11 03:15:35;;;;;;;39.33;13.43;;;-7.70;99.90;;;;;;4380144;28;660521;-67
2021/01/11 03:18:22;;;;;;;38.57;13.33;;;-7.70;99.90;;;;;;4414099;28;658868;-67
2021/01/11 03:21:10;;;;;;;41.93;13.20;;;-7.70;99.90;;;;;;4394997;28;658564;-66
2021/01/11 03:23:57;;;;;;;38.70;12.43;;;-7.70;99.90;;;;;;4405803;28;660658;-67
2021/01/11 03:26:44;;;;;;;32.80;11.80;;;-7.80;99.90;;;;;;4394824;28;658535;-65
2021/01/11 03:29:31;;;;;;;34.60;11.20;;;-7.80;99.90;;;;;;4406122;28;660736;-67
2021/01/11 03:32:18;;;;;;;33.43;11.40;;;-7.80;99.90;;;;;;4405981;28;659879;-67
2021/01/11 03:35:06;;;;;;;31.57;11.83;;;-7.80;99.90;;;;;;4388526;28;658701;-67
2021/01/11 03:37:54;;;;;;;37.07;11.73;;;-7.80;99.90;;;;;;4415911;28;658755;-63
2021/01/11 03:40:42;;;;;;;33.93;11.93;;;-7.80;99.90;;;;;;4410501;28;660427;-67
2021/01/11 03:43:29;;;;;;;37.27;13.07;;;-7.90;99.90;;;;;;4397561;28;658968;-67
2021/01/11 03:46:17;;;;;;;34.28;12.38;;;-7.80;99.90;;;;;;4418082;28;659111;-67
2021/01/11 03:49:04;;;;;;;39.83;13.37;;;-7.80;99.90;;;;;;4398318;28;659877;-63
2021/01/11 03:51:51;;;;;;;35.13;12.83;;;-7.80;99.90;;;;;;4414719;28;659606;-67
2021/01/11 03:54:39;;;;;;;42.73;14.23;;;-7.80;99.90;;;;;;4416504;28;659108;-67
2021/01/11 03:57:29;;;;;;;44.17;14.25;;;-7.80;99.90;;;;;;4391359;28;659070;-67
2021/01/11 04:00:17;;;;;;;42.10;14.43;;;-7.80;99.90;;;;;;4393893;28;660002;-67
2021/01/11 04:03:04;;;;;;;35.90;13.33;;;-7.70;99.90;;;;;;4392615;28;658676;-65
2021/01/11 04:05:51;;;;;;;35.93;14.30;;;-7.70;99.90;;;;;;4416297;28;661191;-67
2021/01/11 04:08:39;;;;;;;36.43;13.23;;;-7.70;99.90;;;;;;4412394;28;658555;-63
2021/01/11 04:11:27;;;;;;;44.03;13.07;;;-7.70;99.90;;;;;;4419663;28;659443;-67
2021/01/11 04:14:14;;;;;;;40.60;13.03;;;-7.60;99.90;;;;;;4397477;28;658457;-64
2021/01/11 04:17:01;;;;;;;43.60;13.55;;;-7.60;99.90;;;;;;4420751;28;660921;-66
2021/01/11 04:19:48;;;;;;;40.60;14.27;;;-7.60;99.90;;;;;;4416481;28;659086;-67
2021/01/11 04:22:35;;;;;;;44.53;13.77;;;-7.50;99.90;;;;;;4389168;28;658563;-66
2021/01/11 04:25:23;;;;;;;36.73;13.73;;;-7.50;99.90;;;;;;4415535;28;658329;-67
2021/01/11 04:28:11;;;;;;;42.50;14.83;;;-7.50;99.90;;;;;;4383301;28;658662;-67
2021/01/11 04:30:59;;;;;;;47.90;17.40;;;-7.60;99.90;;;;;;4415810;28;658516;-64
2021/01/11 04:33:46;;;;;;;56.28;18.38;;;-7.50;99.90;;;;;;4413795;28;660153;-67
2021/01/11 04:36:34;;;;;;;43.93;14.80;;;-7.40;99.90;;;;;;4409007;28;659019;-67
2021/01/11 04:39:21;;;;;;;40.27;14.70;;;-7.40;99.90;;;;;;4392023;28;659504;-67
2021/01/11 04:42:11;;;;;;;46.27;14.70;;;-7.30;99.90;;;;;;4415688;28;658859;-65
2021/01/11 04:44:59;;;;;;;39.30;13.60;;;-7.30;99.90;;;;;;4380747;28;658748;-67
2021/01/11 04:47:50;;;;;;;35.03;13.77;;;-7.30;99.90;;;;;;4391895;28;659497;-67
2021/01/11 04:50:38;;;;;;;40.90;13.83;;;-7.30;99.90;;;;;;4388768;28;659604;-67
2021/01/11 04:53:26;;;;;;;40.00;13.67;;;-7.30;99.90;;;;;;4389322;28;659034;-67
2021/01/11 04:56:14;;;;;;;38.33;13.87;;;-7.20;99.90;;;;;;4399473;28;658717;-64
2021/01/11 04:59:02;;;;;;;41.03;14.27;;;-7.20;99.90;;;;;;4412014;28;659546;-67
2021/01/11 05:01:50;;;;;;;38.70;14.90;;;-7.10;99.90;;;;;;4396430;28;659773;-64
2021/01/11 05:04:37;;;;;;;45.37;16.00;;;-7.10;99.90;;;;;;4407932;28;660083;-67
2021/01/11 05:07:24;;;;;;;50.80;16.67;;;-7.00;99.90;;;;;;4388100;28;659538;-66
2021/01/11 05:10:12;;;;;;;45.47;15.00;;;-7.00;99.90;;;;;;4408572;28;660728;-67
2021/01/11 05:13:00;;;;;;;38.90;14.87;;;-6.80;99.90;;;;;;4396058;28;658712;-66
2021/01/11 05:15:47;;;;;;;46.80;16.40;;;-6.80;99.90;;;;;;4408692;28;659908;-67
2021/01/11 05:18:35;;;;;;;41.63;15.90;;;-6.70;99.90;;;;;;4396507;28;658955;-64
2021/01/11 05:21:40;;;;;;;51.92;17.13;;;-6.60;99.90;;;;;;4415233;28;659892;-67
2021/01/11 05:24:34;;;;;;;50.30;18.83;;;-6.50;99.90;;;;;;4390837;28;660630;-67
2021/01/11 05:27:24;;;;;;;52.53;16.95;;;-6.40;99.90;;;;;;4358799;28;660485;-67
2021/01/11 05:30:27;;;;;;;57.07;20.10;;;-6.30;99.90;;;;;;4390927;28;659394;-67
2021/01/11 05:33:17;;;;;;;58.47;20.03;;;-6.20;99.90;;;;;;4362344;28;659454;-67
2021/01/11 05:36:08;;;;;;;45.77;17.00;;;-6.10;99.90;;;;;;4387916;28;659256;-66
2021/01/11 05:38:55;;;;;;;45.67;17.13;;;-6.00;99.90;;;;;;4389253;28;659538;-67
2021/01/11 05:41:42;;;;;;;56.33;19.47;;;-5.90;99.90;;;;;;4407501;28;658757;-67
2021/01/11 05:44:29;;;;;;;77.17;24.57;;;-5.80;99.90;;;;;;4388210;28;660274;-67
2021/01/11 05:47:16;;;;;;;59.67;21.20;;;-5.70;99.90;;;;;;4417945;28;659566;-67
2021/01/11 05:50:08;;;;;;;64.90;23.60;;;-5.60;99.90;;;;;;4389718;28;658735;-63
2021/01/11 05:52:56;;;;;;;64.30;23.03;;;-5.50;99.90;;;;;;4395364;28;658716;-68
2021/01/11 05:55:43;;;;;;;67.85;23.65;;;-5.40;99.90;;;;;;4407499;28;659268;-67
2021/01/11 05:58:30;;;;;;;83.80;26.10;;;-5.30;99.90;;;;;;4393239;28;658453;-67
2021/01/11 06:01:17;;;;;;;65.40;24.17;;;-5.20;99.90;;;;;;4399231;28;660249;-67
2021/01/11 06:04:04;;;;;;;69.50;24.70;;;-5.10;99.90;;;;;;4395220;28;658685;-66
2021/01/11 06:06:52;;;;;;;71.50;23.73;;;-5.10;99.90;;;;;;4417637;28;658972;-68
2021/01/11 06:09:40;;;;;;;76.17;25.30;;;-5.00;99.90;;;;;;4395366;28;659546;-65
2021/01/11 06:12:27;;;;;;;78.50;27.13;;;-5.00;99.90;;;;;;4400085;28;659366;-68
2021/01/11 06:15:15;;;;;;;70.07;23.40;;;-5.00;99.90;;;;;;4394326;28;658667;-66
2021/01/11 06:18:02;;;;;;;68.37;24.57;;;-4.90;99.90;;;;;;4407202;28;660635;-67
2021/01/11 06:20:49;;;;;;;72.40;24.70;;;-4.90;99.90;;;;;;4378529;28;658901;-67
2021/01/11 06:23:38;;;;;;;76.57;26.90;;;-4.90;99.90;;;;;;4412696;28;659425;-68
2021/01/11 06:26:33;;;;;;;105.03;31.07;;;-4.80;99.90;;;;;;4391434;28;660028;-67
2021/01/11 06:29:29;;;;;;;245.83;70.13;;;-4.80;99.90;;;;;;4361749;28;661232;-67
2021/01/11 06:32:18;;;;;;;309.07;85.10;;;-4.80;99.90;;;;;;4390117;28;660779;-67
2021/01/11 06:35:10;;;;;;;274.53;73.23;;;-4.70;99.90;;;;;;4392740;28;660597;-67
2021/01/11 06:38:18;;;;;;;118.40;39.80;;;-4.70;99.90;;;;;;4389445;28;660545;-67
2021/01/11 06:41:14;;;;;;;160.43;45.25;;;-4.70;99.90;;;;;;4366574;28;662062;-67
2021/01/11 06:44:06;;;;;;;194.83;55.87;;;-4.70;99.90;;;;;;4386017;28;660513;-68
2021/01/11 06:46:54;;;;;;;209.30;58.58;;;-4.60;99.90;;;;;;4378234;28;659541;-64
2021/01/11 06:49:41;;;;;;;202.03;55.57;;;-4.60;99.90;;;;;;4406646;28;661479;-68
2021/01/11 06:52:34;;;;;;;216.85;59.65;;;-4.60;99.90;;;;;;4405281;28;660233;-68
2021/01/11 06:55:21;;;;;;;189.07;54.63;;;-4.60;99.90;;;;;;4388741;28;660345;-67
2021/01/11 06:58:09;;;;;;;179.03;54.43;;;-4.50;99.90;;;;;;4406129;28;659379;-65
2021/01/11 07:01:02;;;;;;;185.03;54.20;;;-4.50;99.90;;;;;;4417349;28;661026;-68
2021/01/11 07:03:50;;;;;;;170.37;51.60;;;-4.40;99.90;;;;;;4388896;28;659970;-68
2021/01/11 07:06:38;;;;;;;160.10;51.70;;;-4.40;99.90;;;;;;4405519;28;660111;-68
2021/01/11 07:09:25;;;;;;;165.70;50.40;;;-4.40;99.90;;;;;;4393217;28;659578;-67
2021/01/11 07:12:12;;;;;;;158.37;50.40;;;-4.30;99.90;;;;;;4413408;28;659971;-68
2021/01/11 07:15:00;;;;;;;168.20;52.83;;;-4.30;99.90;;;;;;4395867;28;660529;-65
2021/01/11 07:17:48;;;;;;;166.30;52.97;;;-4.20;99.90;;;;;;4414637;28;660526;-68
2021/01/11 07:20:40;;;;;;;191.33;59.00;;;-4.20;99.90;;;;;;4389761;28;662217;-68
2021/01/11 07:23:27;;;;;;;188.23;59.43;;;-4.10;99.90;;;;;;4389913;28;660142;-68
2021/01/11 07:26:15;;;;;;;190.37;59.53;;;-4.10;99.90;;;;;;4383178;28;659785;-67
2021/01/11 07:29:04;;;;;;;179.77;55.87;;;-4.00;99.90;;;;;;4415048;28;661001;-68
2021/01/11 07:31:51;;;;;;;188.43;58.80;;;-4.00;99.90;;;;;;4390221;28;659543;-68
2021/01/11 07:34:39;;;;;;;204.43;61.20;;;-4.00;99.90;;;;;;4412630;28;660314;-68
2021/01/11 07:37:26;;;;;;;187.32;59.35;;;-3.90;99.90;;;;;;4389672;28;660585;-68
2021/01/11 07:40:14;;;;;;;183.67;56.00;;;-3.90;99.90;;;;;;4414543;28;659789;-68
2021/01/11 07:43:01;;;;;;;204.20;61.70;;;-3.80;99.90;;;;;;4385728;28;661023;-68
2021/01/11 07:45:49;;;;;;;203.27;61.63;;;-3.70;99.90;;;;;;4410647;28;659742;-63
2021/01/11 07:48:36;;;;;;;236.30;72.97;;;-3.40;99.90;;;;;;4406013;28;660627;-68
2021/01/11 07:51:25;;;;;;;243.80;79.93;;;-3.40;99.90;;;;;;4413555;28;659742;-68
2021/01/11 07:54:14;;;;;;;221.80;74.40;;;-3.40;99.90;;;;;;4390911;28;661722;-69
2021/01/11 07:57:01;;;;;;;227.63;76.53;;;-3.30;99.90;;;;;;4391918;28;661636;-68
2021/01/11 07:59:49;;;;;;;263.07;79.87;;;-3.40;99.90;;;;;;4414489;28;660605;-67
2021/01/11 08:02:36;;;;;;;216.00;72.97;;;-3.30;99.90;;;;;;4418613;28;660431;-68
2021/01/11 08:05:23;;;;;;;193.23;63.93;;;-3.30;99.90;;;;;;4414197;28;659287;-68
2021/01/11 08:08:11;;;;;;;206.97;63.33;;;-3.20;99.90;;;;;;4395782;28;660582;-69
2021/01/11 08:10:59;;;;;;;196.97;60.77;;;-3.20;99.90;;;;;;4412740;28;659555;-69
2021/01/11 08:13:46;;;;;;;198.70;65.33;;;-3.00;99.90;;;;;;4383184;28;661559;-68
2021/01/11 08:16:42;;;;;;;203.23;67.23;;;-3.00;99.90;;;;;;4424256;28;659564;-68
2021/01/11 08:19:29;;;;;;;211.17;63.47;;;-2.90;99.90;;;;;;4378174;28;659746;-68
2021/01/11 08:22:17;;;;;;;235.33;77.67;;;-2.90;99.90;;;;;;4416015;28;661411;-68
2021/01/11 08:25:08;;;;;;;197.43;66.97;;;-2.80;99.90;;;;;;4412321;28;659752;-68
2021/01/11 08:27:57;;;;;;;205.60;68.00;;;-2.80;99.90;;;;;;4406676;28;661465;-68
2021/01/11 08:30:44;;;;;;;177.83;62.57;;;-2.70;99.90;;;;;;4378304;28;659774;-67
2021/01/11 08:33:31;;;;;;;188.70;61.30;;;-2.70;99.90;;;;;;4414181;28;661057;-69
2021/01/11 08:36:19;;;;;;;254.73;80.70;;;-2.60;99.90;;;;;;4400071;28;660143;-65
2021/01/11 08:39:14;;;;;;;237.00;72.10;;;-2.50;99.90;;;;;;4414099;28;660217;-68
2021/01/11 08:42:04;;;;;;;235.20;75.87;;;-2.40;99.90;;;;;;4367206;28;660713;-68
2021/01/11 08:44:51;;;;;;;249.80;77.53;;;-2.40;99.90;;;;;;4385996;28;660901;-69
2021/01/11 08:47:39;;;;;;;256.67;81.43;;;-2.20;99.90;;;;;;4388519;28;661103;-66
2021/01/11 08:50:26;;;;;;;247.20;85.15;;;-2.10;99.90;;;;;;4407670;28;660632;-66
2021/01/11 08:53:22;;;;;;;290.17;91.28;;;-2.00;99.90;;;;;;4415094;28;660804;-68
2021/01/11 08:56:09;;;;;;;282.50;90.03;;;-1.90;99.90;;;;;;4363101;28;661009;-67
2021/01/11 08:58:58;;;;;;;243.27;69.97;;;-1.80;99.90;;;;;;4413138;28;660306;-69
2021/01/11 09:01:45;;;;;;;226.73;69.17;;;-1.40;99.90;;;;;;4390661;28;659506;-68
2021/01/11 09:04:44;;;;;;;176.13;59.03;;;-1.20;99.90;;;;;;4406767;28;659343;-68
2021/01/11 09:07:37;;;;;;;173.80;59.90;;;-1.20;99.90;;;;;;4394427;28;659493;-68
2021/01/11 09:10:25;;;;;;;258.10;68.57;;;-1.10;99.90;;;;;;4371377;28;659904;-67
2021/01/11 09:13:19;;;;;;;190.80;67.73;;;-0.40;99.90;;;;;;4413568;28;661065;-68
2021/01/11 09:16:14;;;;;;;154.50;53.07;;;0.50;99.90;;;;;;4367568;28;659827;-68
2021/01/11 09:19:07;;;;;;;130.37;47.80;;;1.30;99.90;;;;;;4368891;28;659378;-68
2021/01/11 09:22:02;;;;;;;135.70;51.23;;;2.10;99.90;;;;;;4395246;28;659566;-68
2021/01/11 09:24:49;;;;;;;131.07;48.88;;;2.70;99.90;;;;;;4367978;28;658661;-65
2021/01/11 09:27:48;;;;;;;131.57;46.92;;;3.40;99.90;;;;;;4413112;28;659878;-68
2021/01/11 09:30:35;;;;;;;121.93;44.57;;;3.90;99.90;;;;;;4394987;28;658529;-69
2021/01/11 09:33:23;;;;;;;117.47;43.33;;;4.40;99.90;;;;;;4406670;28;659721;-69
2021/01/11 09:36:10;;;;;;;133.13;46.17;;;5.00;92.70;;;;;;4382965;28;660250;-69
2021/01/11 09:38:58;;;;;;;137.07;46.53;;;4.90;92.60;;;;;;4409870;28;659678;-69
2021/01/11 09:41:46;;;;;;;100.53;40.40;;;5.10;91.90;;;;;;4391404;28;659235;-67
2021/01/11 09:44:34;;;;;;;99.67;37.63;;;5.60;75.00;;;;;;4413591;28;658297;-65
2021/01/11 09:47:22;;;;;;;100.85;39.33;;;5.40;75.80;;;;;;4408874;28;658941;-69
2021/01/11 09:50:11;;;;;;;84.70;30.53;;;5.00;84.40;;;;;;4386493;28;659506;-66
2021/01/11 09:53:01;;;;;;;85.30;33.80;;;5.70;72.00;;;;;;4398783;28;657509;-70
2021/01/11 09:55:48;;;;;;;84.07;32.50;;;6.20;61.40;;;;;;4389613;28;658458;-69
2021/01/11 09:58:35;;;;;;;75.40;30.00;;;6.50;65.90;;;;;;4391510;28;657441;-69
2021/01/11 10:01:22;;;;;;;88.80;35.37;;;6.80;59.20;;;;;;4415436;28;659406;-69
2021/01/11 10:04:10;;;;;;;83.57;33.60;;;7.20;54.10;;;;;;4390050;28;657505;-68
2021/01/11 10:06:58;;;;;;;86.32;34.00;;;7.00;56.60;;;;;;4412394;28;659514;-70
2021/01/11 10:09:45;;;;;;;91.00;34.22;;;7.30;57.30;;;;;;4393346;28;658510;-68
2021/01/11 10:12:32;;;;;;;85.63;32.33;;;7.40;60.40;;;;;;4409674;28;659093;-69
2021/01/11 10:15:19;;;;;;;83.60;33.17;;;8.10;53.10;;;;;;4396067;28;657888;-68
2021/01/11 10:18:06;;;;;;;86.60;35.13;;;8.20;52.70;;;;;;4413172;28;659971;-69
2021/01/11 10:20:53;;;;;;;84.93;33.60;;;8.40;50.70;;;;;;4415005;28;657762;-70
2021/01/11 10:23:41;;;;;;;83.67;33.90;;;8.80;51.50;;;;;;4391330;28;657865;-69
2021/01/11 10:26:29;;;;;;;100.80;37.47;;;8.90;51.40;;;;;;4408392;28;658866;-66
2021/01/11 10:29:17;;;;;;;92.03;36.23;;;9.00;47.50;;;;;;4411157;28;658423;-69
2021/01/11 10:32:04;;;;;;;94.23;37.03;;;8.80;48.60;;;;;;4395598;28;657660;-67
2021/01/11 10:34:51;;;;;;;100.10;40.30;;;9.20;48.20;;;;;;4409047;28;657647;-69
2021/01/11 10:37:39;;;;;;;105.47;41.70;;;9.60;47.90;;;;;;4406267;28;658635;-65
2021/01/11 10:40:27;;;;;;;101.77;40.57;;;9.80;49.50;;;;;;4411948;28;659362;-69
2021/01/11 10:43:14;;;;;;;106.82;42.35;;;10.40;44.90;;;;;;4394017;28;658516;-66
2021/01/11 10:46:01;;;;;;;105.10;41.40;;;10.00;45.60;;;;;;4404280;28;661045;-69
2021/01/11 10:48:48;;;;;;;99.37;40.73;;;10.20;45.30;;;;;;4413257;28;659752;-70
2021/01/11 10:51:35;;;;;;;110.13;42.07;;;10.20;46.60;;;;;;4394665;28;658575;-70
2021/01/11 10:54:22;;;;;;;112.77;42.87;;;11.00;45.90;;;;;;4413801;28;660831;-69
2021/01/11 10:57:10;;;;;;;130.00;49.67;;;11.30;45.10;;;;;;4395598;28;659764;-68
2021/01/11 10:59:57;;;;;;;106.17;41.57;;;11.30;41.70;;;;;;4410127;28;661304;-70
2021/01/11 11:02:44;;;;;;;93.77;40.13;;;11.20;44.10;;;;;;4381964;28;659667;-69
2021/01/11 11:05:31;;;;;;;100.60;41.15;;;11.50;41.50;;;;;;4408854;28;659222;-70
2021/01/11 11:08:19;;;;;;;85.05;36.00;;;11.40;41.80;;;;;;4391625;28;660497;-66
2021/01/11 11:11:06;;;;;;;105.17;42.40;;;11.60;42.00;;;;;;4414976;28;660182;-69
2021/01/11 11:13:55;;;;;;;92.87;37.33;;;11.50;41.50;;;;;;4411503;28;659738;-66
2021/01/11 11:16:42;;;;;;;92.05;38.08;;;11.70;41.40;;;;;;4415950;28;659996;-67
2021/01/11 11:19:29;;;;;;;85.30;36.37;;;11.70;42.00;;;;;;4393068;28;658802;-68
2021/01/11 11:22:16;;;;;;;84.17;34.37;;;11.80;40.40;;;;;;4413526;28;658745;-68
2021/01/11 11:25:06;;;;;;;86.93;38.57;;;11.90;41.30;;;;;;4416132;28;659168;-69
2021/01/11 11:27:53;;;;;;;81.30;36.60;;;11.60;40.30;;;;;;4382599;28;659362;-70
2021/01/11 11:30:43;;;;;;;92.17;38.23;;;11.40;41.70;;;;;;4392019;28;660667;-69
2021/01/11 11:33:30;;;;;;;87.90;36.80;;;11.80;40.70;;;;;;4387406;28;660455;-69
2021/01/11 11:36:19;;;;;;;78.83;33.53;;;11.70;41.20;;;;;;4407192;28;659295;-66
2021/01/11 11:39:06;;;;;;;89.13;36.13;;;12.00;40.40;;;;;;4380008;28;660543;-69
2021/01/11 11:41:57;;;;;;;86.03;37.27;;;12.20;40.80;;;;;;4412951;28;658688;-65
2021/01/11 11:44:45;;;;;;;93.97;37.63;;;12.10;39.60;;;;;;4388743;28;658651;-68
2021/01/11 11:47:33;;;;;;;81.87;36.77;;;12.10;41.40;;;;;;4414773;28;660456;-69
2021/01/11 11:50:21;;;;;;;79.63;34.03;;;12.40;40.90;;;;;;4392320;28;660664;-69
2021/01/11 11:53:08;;;;;;;85.90;35.77;;;13.00;39.90;;;;;;4415021;28;659327;-69
2021/01/11 11:55:55;;;;;;;82.53;37.40;;;13.40;38.90;;;;;;4391535;28;659299;-69
2021/01/11 11:58:42;;;;;;;86.70;37.00;;;13.10;38.50;;;;;;4415561;28;660237;-70
2021/01/11 12:01:35;;;;;;;85.13;36.87;;;13.30;39.20;;;;;;4395616;28;658722;-67
2021/01/11 12:04:23;;;;;;;84.60;36.27;;;13.10;39.10;;;;;;4389023;28;659106;-68
2021/01/11 12:07:13;;;;;;;75.70;33.83;;;13.30;39.30;;;;;;4383182;28;658699;-69
2021/01/11 12:10:00;;;;;;;77.70;35.63;;;13.60;36.90;;;;;;4391610;28;659709;-68
2021/01/11 12:12:47;;;;;;;84.27;37.00;;;13.30;38.00;;;;;;4409204;28;658987;-69
2021/01/11 12:15:35;;;;;;;85.30;37.00;;;13.30;37.00;;;;;;4390921;28;658629;-68
2021/01/11 12:18:22;;;;;;;88.03;37.13;;;13.60;38.00;;;;;;4407496;28;660337;-69
2021/01/11 12:21:10;;;;;;;85.00;37.77;;;13.70;36.20;;;;;;4378240;28;659200;-67
2021/01/11 12:23:57;;;;;;;85.67;36.80;;;13.30;36.80;;;;;;4410273;28;658731;-69
2021/01/11 12:26:45;;;;;;;77.20;35.90;;;13.60;36.10;;;;;;4386149;28;658699;-66
2021/01/11 12:29:32;;;;;;;75.63;34.83;;;13.60;36.80;;;;;;4411888;28;660009;-69
2021/01/11 12:32:19;;;;;;;68.63;31.07;;;13.70;36.90;;;;;;4379169;28;659013;-67
2021/01/11 12:35:07;;;;;;;81.40;36.53;;;14.20;35.60;;;;;;4407065;28;660144;-68
2021/01/11 12:37:55;;;;;;;81.17;34.97;;;14.30;35.00;;;;;;4383905;28;658792;-67
2021/01/11 12:40:42;;;;;;;87.10;37.90;;;14.20;34.70;;;;;;4398743;28;660541;-69
2021/01/11 12:43:30;;;;;;;71.77;33.27;;;13.80;35.10;;;;;;4382525;28;659199;-67
2021/01/11 12:46:17;;;;;;;74.13;33.53;;;12.50;37.20;;;;;;4402839;28;660117;-68
2021/01/11 12:49:05;;;;;;;76.53;34.43;;;13.20;36.70;;;;;;4384062;28;658653;-68
2021/01/11 12:51:52;;;;;;;70.87;31.93;;;13.20;36.50;;;;;;4412470;28;659446;-68
2021/01/11 12:54:40;;;;;;;79.47;36.00;;;12.90;36.20;;;;;;4386738;28;659664;-67
2021/01/11 12:57:27;;;;;;;70.10;30.17;;;12.40;37.20;;;;;;4404323;28;660472;-68
2021/01/11 13:00:15;;;;;;;59.97;27.47;;;12.20;37.30;;;;;;4384583;28;658557;-68
2021/01/11 13:03:03;;;;;;;64.40;29.00;;;11.80;37.10;;;;;;4400837;28;659482;-68
2021/01/11 13:05:50;;;;;;;63.35;28.27;;;11.50;37.20;;;;;;4392771;28;659220;-68
2021/01/11 13:08:37;;;;;;;61.43;29.07;;;11.20;39.60;;;;;;4406406;28;659918;-68
2021/01/11 13:11:25;;;;;;;65.67;29.53;;;11.50;39.20;;;;;;4380593;28;660488;-66
2021/01/11 13:14:17;;;;;;;68.57;29.70;;;11.10;39.00;;;;;;4408240;28;659304;-68
2021/01/11 13:17:04;;;;;;;75.67;32.93;;;11.00;38.70;;;;;;4363551;28;658922;-66
2021/01/11 13:19:51;;;;;;;76.67;32.97;;;10.20;39.90;;;;;;4403233;28;660205;-68
2021/01/11 13:22:38;;;;;;;84.77;35.87;;;10.40;41.70;;;;;;4403436;28;658654;-68
2021/01/11 13:25:27;;;;;;;74.40;33.40;;;9.60;42.30;;;;;;4388962;28;660776;-68
2021/01/11 13:28:15;;;;;;;77.68;33.20;;;9.20;43.60;;;;;;4383740;28;657780;-67
2021/01/11 13:31:06;;;;;;;65.10;29.90;;;9.60;43.20;;;;;;4402387;28;658616;-68
2021/01/11 13:33:54;;;;;;;67.15;28.70;;;9.50;42.00;;;;;;4378838;28;657860;-64
2021/01/11 13:36:41;;;;;;;61.10;25.10;;;9.40;41.90;;;;;;4402551;28;659153;-68
2021/01/11 13:39:28;;;;;;;62.20;28.57;;;10.00;40.80;;;;;;4410628;28;658438;-68
2021/01/11 13:42:15;;;;;;;63.83;27.27;;;10.00;40.00;;;;;;4387422;28;658729;-68
2021/01/11 13:45:03;;;;;;;66.87;28.43;;;9.90;43.40;;;;;;4398962;28;661060;-68
2021/01/11 13:47:50;;;;;;;59.43;26.77;;;10.30;40.50;;;;;;4388003;28;658274;-68
2021/01/11 13:50:37;;;;;;;60.10;25.87;;;10.20;41.30;;;;;;4411847;28;659461;-68
2021/01/11 13:53:24;;;;;;;48.57;20.97;;;9.90;42.30;;;;;;4388012;28;658561;-66
2021/01/11 13:56:11;;;;;;;45.67;19.00;;;10.20;40.40;;;;;;4400362;28;659398;-68
2021/01/11 13:58:59;;;;;;;38.40;17.20;;;10.30;40.00;;;;;;4397573;28;658561;-64
2021/01/11 14:01:48;;;;;;;40.27;17.80;;;9.90;38.90;;;;;;4405085;28;660321;-68